| time (UTC) | temp C | wind direction | speed KPH | gust KPH | rain 1hr cm | rain 24hr cm | rain mn cm | humidity % | barometer mb |
| 20260502211051 | 18 | 303 | 1.6 | 6.4 | 0.00 | 0.00 | 0.00 | 24 | 1021.1 |
| 20260502210555 | 18 | 126 | 3.2 | 6.4 | 0.00 | 0.00 | 0.00 | 23 | 1021.1 |
| 20260502210108 | 18 | 274 | 3.2 | 9.7 | 0.00 | 0.00 | 0.00 | 22 | 1021.0 |
| 20260502205555 | 18 | 305 | 1.6 | 9.7 | 0.00 | 0.00 | 0.00 | 24 | 1021.1 |
| 20260502205053 | 20 | 254 | 1.6 | 9.7 | 0.00 | 0.00 | 0.00 | 22 | 1021.2 |
| 20260502204554 | 18 | 353 | 3.2 | 9.7 | 0.00 | 0.00 | 0.00 | 22 | 1021.2 |
| 20260502204051 | 18 | 180 | 1.6 | 8.0 | 0.00 | 0.00 | 0.00 | 25 | 1021.3 |
| 20260502203553 | 19 | 303 | 1.6 | 9.7 | 0.00 | 0.00 | 0.00 | 24 | 1021.3 |
| 20260502203058 | 19 | 3 | 1.6 | 9.7 | 0.00 | 0.00 | 0.00 | 24 | 1021.4 |
| 20260502202551 | 18 | 205 | 1.6 | 9.7 | 0.00 | 0.00 | 0.00 | 29 | 1021.4 |
| 20260502202052 | 18 | 171 | 3.2 | 9.7 | 0.00 | 0.00 | 0.00 | 25 | 1021.4 |
| 20260502201554 | 18 | 265 | 3.2 | 9.7 | 0.00 | 0.00 | 0.00 | 23 | 1021.5 |
| 20260502201053 | 19 | 359 | 3.2 | 11.3 | 0.00 | 0.00 | 0.00 | 26 | 1021.4 |
| 20260502200555 | 18 | 26 | 3.2 | 11.3 | 0.00 | 0.00 | 0.00 | 27 | 1021.5 |
| 20260502200121 | 17 | 312 | 3.2 | 11.3 | 0.00 | 0.00 | 0.00 | 28 | 1021.5 |
| 20260502195551 | 17 | 16 | 1.6 | 8.0 | 0.00 | 0.00 | 0.00 | 28 | 1021.6 |
| 20260502195054 | 17 | 229 | 0.0 | 11.3 | 0.00 | 0.00 | 0.00 | 24 | 1021.8 |
| 20260502194605 | 17 | 59 | 1.6 | 11.3 | 0.00 | 0.00 | 0.00 | 24 | 1021.8 |
| 20260502194051 | 18 | 43 | 3.2 | 8.0 | 0.00 | 0.00 | 0.00 | 27 | 1021.8 |
| 20260502193553 | 18 | 263 | 3.2 | 8.0 | 0.00 | 0.00 | 0.00 | 25 | 1022.0 |
| 20260502193054 | 18 | 263 | 3.2 | 8.0 | 0.00 | 0.00 | 0.00 | 27 | 1021.9 |
| 20260502192551 | 18 | 348 | 8.0 | 8.0 | 0.00 | 0.00 | 0.00 | 24 | 1022.0 |
| 20260502192051 | 17 | 0.0 | 0.0 | 0.00 | 0.00 | 0.00 | 28 | 1022.1 | |
| 20260502191601 | 18 | 0.0 | 0.0 | 0.00 | 0.00 | 0.00 | 27 | 1022.2 | |
| 20260502191053 | 17 | 0.0 | 0.0 | 0.00 | 0.00 | 0.00 | 26 | 1022.2 | |
| 20260502190554 | 17 | 0.0 | 0.0 | 0.00 | 0.00 | 0.00 | 26 | 1022.3 | |
| 20260502190058 | 17 | 0.0 | 0.0 | 0.00 | 0.00 | 0.00 | 24 | 1022.4 | |
| 20260502185553 | 16 | 0.0 | 0.0 | 0.00 | 0.00 | 0.00 | 27 | 1022.4 | |
| 20260502185052 | 16 | 0.0 | 0.0 | 0.00 | 0.00 | 0.00 | 27 | 1022.5 | |
| 20260502184555 | 17 | 0.0 | 0.0 | 0.00 | 0.00 | 0.00 | 26 | 1022.5 | |
| 20260502184052 | 16 | 0.0 | 0.0 | 0.00 | 0.00 | 0.00 | 26 | 1022.7 | |
| 20260502183552 | 16 | 0.0 | 0.0 | 0.00 | 0.00 | 0.00 | 26 | 1022.7 | |
| 20260502183100 | 15 | 0.0 | 0.0 | 0.00 | 0.00 | 0.00 | 27 | 1022.8 | |
| 20260502182552 | 16 | 0.0 | 0.0 | 0.00 | 0.00 | 0.00 | 26 | 1022.7 | |
| 20260502182050 | 17 | 0.0 | 0.0 | 0.00 | 0.00 | 0.00 | 27 | 1022.9 | |
| 20260502181553 | 16 | 0.0 | 0.0 | 0.00 | 0.00 | 0.00 | 27 | 1022.9 | |
| 20260502181053 | 16 | 0.0 | 0.0 | 0.00 | 0.00 | 0.00 | 26 | 1023.0 | |
| 20260502180554 | 15 | 0.0 | 0.0 | 0.00 | 0.00 | 0.00 | 27 | 1023.0 | |
| 20260502164053 | 12 | 0.0 | 0.0 | 0.00 | 0.00 | 0.00 | 32 | 1024.0 | |
| 20260502163550 | 11 | 0.0 | 0.0 | 0.00 | 0.00 | 0.00 | 34 | 1024.0 | |
| 20260502163100 | 12 | 0.0 | 0.0 | 0.00 | 0.00 | 0.00 | 33 | 1024.1 | |
| 20260502162550 | 12 | 0.0 | 0.0 | 0.00 | 0.00 | 0.00 | 36 | 1024.1 | |
| 20260502162052 | 11 | 0.0 | 0.0 | 0.00 | 0.00 | 0.00 | 35 | 1024.1 | |
| 20260502161604 | 11 | 0.0 | 0.0 | 0.00 | 0.00 | 0.00 | 37 | 1024.0 | |
| 20260502161053 | 11 | 0.0 | 0.0 | 0.00 | 0.00 | 0.00 | 38 | 1024.0 | |
| 20260502160552 | 10 | 0.0 | 0.0 | 0.00 | 0.00 | 0.00 | 35 | 1024.1 | |
| 20260502152050 | 8 | 0.0 | 0.0 | 0.00 | 0.00 | 0.00 | 43 | 1024.3 | |
| 20260502151611 | 8 | 0.0 | 0.0 | 0.00 | 0.00 | 0.00 | 46 | 1024.3 | |
| 20260502151052 | 7 | 0.0 | 0.0 | 0.00 | 0.00 | 0.00 | 50 | 1024.3 | |
| 20260502150550 | 6 | 0.0 | 0.0 | 0.00 | 0.00 | 0.00 | 50 | 1024.3 | |
| 20260502130554 | -4 | 0.0 | 0.0 | 0.00 | 0.00 | 0.00 | 83 | 1024.5 | |
| 20260502130105 | -4 | 0.0 | 0.0 | 0.00 | 0.00 | 0.00 | 84 | 1024.5 | |
| 20260502123550 | -5 | 0.0 | 0.0 | 0.00 | 0.00 | 0.00 | 84 | 1024.3 | |
| 20260502123052 | -4 | 0.0 | 0.0 | 0.00 | 0.00 | 0.00 | 82 | 1024.4 | |
| 20260502122551 | -4 | 0.0 | 0.0 | 0.00 | 0.00 | 0.00 | 83 | 1024.4 | |
| 20260502122051 | -5 | 0.0 | 0.0 | 0.00 | 0.00 | 0.00 | 84 | 1024.4 | |
| 20260502121556 | -5 | 0.0 | 0.0 | 0.00 | 0.00 | 0.00 | 83 | 1024.4 | |
| 20260502121128 | -4 | 0.0 | 0.0 | 0.00 | 0.00 | 0.00 | 80 | 1024.4 | |
| 20260502120551 | -3 | 0.0 | 0.0 | 0.00 | 0.00 | 0.00 | 81 | 1024.4 | |
| 20260502115553 | -4 | 0.0 | 0.0 | 0.00 | 0.00 | 0.00 | 81 | 1024.4 | |
| 20260502115053 | -3 | 0.0 | 0.0 | 0.00 | 0.00 | 0.00 | 79 | 1024.3 | |
| 20260502114559 | -3 | 0.0 | 0.0 | 0.00 | 0.00 | 0.00 | 80 | 1024.4 | |
| 20260502114053 | -3 | 0.0 | 0.0 | 0.00 | 0.00 | 0.00 | 79 | 1024.4 | |
| 20260502113553 | -3 | 0.0 | 0.0 | 0.00 | 0.00 | 0.00 | 79 | 1024.4 | |
| 20260502113056 | -3 | 0.0 | 0.0 | 0.00 | 0.00 | 0.00 | 80 | 1024.5 | |
| 20260502112550 | -3 | 0.0 | 0.0 | 0.00 | 0.00 | 0.00 | 82 | 1024.6 | |
| 20260502112050 | -4 | 0.0 | 0.0 | 0.00 | 0.00 | 0.00 | 81 | 1024.5 | |
| 20260502111603 | -3 | 0.0 | 0.0 | 0.00 | 0.00 | 0.00 | 80 | 1024.5 | |
| 20260502111050 | -3 | 0.0 | 0.0 | 0.00 | 0.00 | 0.00 | 81 | 1024.5 | |
| 20260502110550 | -3 | 0.0 | 0.0 | 0.00 | 0.00 | 0.00 | 82 | 1024.5 | |
| 20260502105551 | -3 | 0.0 | 0.0 | 0.00 | 0.00 | 0.00 | 80 | 1024.5 | |
| 20260502105053 | -3 | 0.0 | 0.0 | 0.00 | 0.00 | 0.00 | 78 | 1024.6 | |
| 20260502104555 | -3 | 0.0 | 0.0 | 0.00 | 0.00 | 0.00 | 80 | 1024.5 | |
| 20260502104053 | -3 | 0.0 | 0.0 | 0.00 | 0.00 | 0.00 | 79 | 1024.5 | |
| 20260502103553 | -3 | 0.0 | 0.0 | 0.00 | 0.00 | 0.00 | 78 | 1024.6 | |
| 20260502103105 | -3 | 0.0 | 0.0 | 0.00 | 0.00 | 0.00 | 78 | 1024.6 | |
| 20260502102552 | -3 | 0.0 | 0.0 | 0.00 | 0.00 | 0.00 | 78 | 1024.6 | |
| 20260502102051 | -3 | 0.0 | 0.0 | 0.00 | 0.00 | 0.00 | 78 | 1024.5 | |
| 20260502101603 | -3 | 0.0 | 0.0 | 0.00 | 0.00 | 0.00 | 78 | 1024.5 | |
| 20260502101053 | -3 | 0.0 | 0.0 | 0.00 | 0.00 | 0.00 | 78 | 1024.3 | |
| 20260502100553 | -3 | 0.0 | 0.0 | 0.00 | 0.00 | 0.00 | 80 | 1024.4 | |
| 20260502091051 | -2 | 0.0 | 0.0 | 0.00 | 0.00 | 0.00 | 78 | 1024.0 | |
| 20260502090553 | -2 | 0.0 | 0.0 | 0.00 | 0.00 | 0.00 | 77 | 1024.0 | |
| 20260502090114 | -2 | 0.0 | 0.0 | 0.00 | 0.00 | 0.00 | 77 | 1024.0 | |
| 20260502071052 | -1 | 0.0 | 0.0 | 0.00 | 0.00 | 0.00 | 74 | 1024.1 | |
| 20260502070553 | -1 | 0.0 | 0.0 | 0.00 | 0.00 | 0.00 | 73 | 1024.2 | |
| 20260502070106 | -1 | 0.0 | 0.0 | 0.00 | 0.00 | 0.00 | 75 | 1024.0 | |
| 20260502065553 | -2 | 0.0 | 0.0 | 0.00 | 0.00 | 0.00 | 75 | 1024.0 | |
| 20260502065054 | -1 | 0.0 | 0.0 | 0.00 | 0.00 | 0.00 | 73 | 1023.9 | |
| 20260502064620 | -1 | 0.0 | 0.0 | 0.00 | 0.00 | 0.00 | 73 | 1023.9 | |
| 20260502064050 | -1 | 0.0 | 0.0 | 0.00 | 0.00 | 0.00 | 72 | 1023.9 | |
| 20260502063550 | -1 | 0.0 | 0.0 | 0.00 | 0.00 | 0.00 | 74 | 1023.9 | |
| 20260502063054 | -1 | 0.0 | 0.0 | 0.00 | 0.00 | 0.00 | 72 | 1023.8 | |
| 20260502062552 | -1 | 0.0 | 0.0 | 0.00 | 0.00 | 0.00 | 72 | 1023.9 | |
| 20260502062053 | -1 | 0.0 | 0.0 | 0.00 | 0.00 | 0.00 | 72 | 1023.8 | |
| 20260502061554 | 0 | 0.0 | 0.0 | 0.00 | 0.00 | 0.00 | 70 | 1023.8 | |
| 20260502061053 | 0 | 0.0 | 0.0 | 0.00 | 0.00 | 0.00 | 69 | 1023.6 | |
| 20260502060553 | 0 | 0.0 | 0.0 | 0.00 | 0.00 | 0.00 | 68 | 1023.6 | |
| 20260502060055 | 0 | 0.0 | 0.0 | 0.00 | 0.00 | 0.00 | 70 | 1023.6 | |
| 20260502055551 | 0 | 0.0 | 0.0 | 0.00 | 0.00 | 0.00 | 71 | 1023.6 | |
| 20260502055051 | 0 | 0.0 | 0.0 | 0.00 | 0.00 | 0.00 | 72 | 1023.6 | |
| 20260502054557 | 0 | 0.0 | 0.0 | 0.00 | 0.00 | 0.00 | 69 | 1023.5 | |
| 20260502054053 | 0 | 0.0 | 0.0 | 0.00 | 0.00 | 0.00 | 68 | 1023.6 | |
| 20260502053553 | 0 | 0.0 | 0.0 | 0.00 | 0.00 | 0.00 | 69 | 1023.5 | |
| 20260502053055 | 0 | 0.0 | 0.0 | 0.00 | 0.00 | 0.00 | 67 | 1023.5 | |
| 20260502052550 | 0 | 0.0 | 0.0 | 0.00 | 0.00 | 0.00 | 68 | 1023.5 | |
| 20260502052056 | 0 | 0.0 | 0.0 | 0.00 | 0.00 | 0.00 | 66 | 1023.6 | |
| 20260502051554 | 1 | 0.0 | 0.0 | 0.00 | 0.00 | 0.00 | 65 | 1023.6 | |
| 20260502051053 | 1 | 0.0 | 0.0 | 0.00 | 0.00 | 0.00 | 65 | 1023.6 | |
| 20260502050553 | 1 | 0.0 | 0.0 | 0.00 | 0.00 | 0.00 | 65 | 1023.5 | |
| 20260502050055 | 1 | 0.0 | 0.0 | 0.00 | 0.00 | 0.00 | 65 | 1023.6 | |
| 20260502045553 | 1 | 0.0 | 0.0 | 0.00 | 0.00 | 0.00 | 68 | 1023.6 | |
| 20260502045051 | 1 | 0.0 | 0.0 | 0.00 | 0.00 | 0.00 | 64 | 1023.6 | |
| 20260502044556 | 1 | 0.0 | 0.0 | 0.00 | 0.00 | 0.00 | 66 | 1023.5 | |
| 20260502044050 | 1 | 0.0 | 0.0 | 0.00 | 0.00 | 0.00 | 67 | 1023.5 | |
| 20260502043550 | 1 | 0.0 | 0.0 | 0.00 | 0.00 | 0.00 | 67 | 1023.4 | |
| 20260502043052 | 2 | 0.0 | 0.0 | 0.00 | 0.00 | 0.00 | 64 | 1023.3 | |
| 20260502042550 | 2 | 0.0 | 0.0 | 0.00 | 0.00 | 0.00 | 65 | 1023.2 | |
| 20260502042052 | 2 | 0.0 | 0.0 | 0.00 | 0.00 | 0.00 | 61 | 1023.2 | |
| 20260502041558 | 2 | 0.0 | 0.0 | 0.00 | 0.00 | 0.00 | 61 | 1023.3 | |
| 20260502041052 | 2 | 0.0 | 0.0 | 0.00 | 0.00 | 0.00 | 60 | 1023.3 | |
| 20260502040555 | 2 | 0.0 | 0.0 | 0.00 | 0.00 | 0.00 | 62 | 1023.2 | |
| 20260502040056 | 3 | 0.0 | 0.0 | 0.00 | 0.00 | 0.00 | 59 | 1023.1 | |
| 20260502035551 | 3 | 0.0 | 0.0 | 0.00 | 0.00 | 0.00 | 62 | 1023.0 | |
| 20260502035052 | 3 | 0.0 | 0.0 | 0.00 | 0.00 | 0.00 | 57 | 1023.1 | |
| 20260502034553 | 3 | 0.0 | 0.0 | 0.00 | 0.00 | 0.00 | 57 | 1022.9 | |
| 20260502034051 | 3 | 0.0 | 0.0 | 0.00 | 0.00 | 0.00 | 59 | 1022.9 | |
| 20260502033550 | 3 | 0.0 | 0.0 | 0.00 | 0.00 | 0.00 | 61 | 1022.8 | |
| 20260502033101 | 4 | 0.0 | 0.0 | 0.00 | 0.00 | 0.00 | 59 | 1022.7 | |
| 20260502032550 | 5 | 0.0 | 0.0 | 0.00 | 0.00 | 0.00 | 53 | 1022.7 | |
| 20260502032055 | 5 | 0.0 | 0.0 | 0.00 | 0.00 | 0.00 | 55 | 1022.6 | |
| 20260502031601 | 4 | 0.0 | 0.0 | 0.00 | 0.00 | 0.00 | 55 | 1022.5 | |
| 20260502031053 | 5 | 0.0 | 0.0 | 0.00 | 0.00 | 0.00 | 55 | 1022.4 | |
| 20260502030553 | 6 | 0.0 | 0.0 | 0.00 | 0.00 | 0.00 | 49 | 1022.3 | |
| 20260502030057 | 6 | 0.0 | 0.0 | 0.00 | 0.00 | 0.00 | 48 | 1022.2 | |
| 20260502025553 | 6 | 0.0 | 0.0 | 0.00 | 0.00 | 0.00 | 54 | 1022.1 | |
| 20260502025053 | 6 | 0.0 | 0.0 | 0.00 | 0.00 | 0.00 | 46 | 1022.0 | |
| 20260502024607 | 6 | 0.0 | 0.0 | 0.00 | 0.00 | 0.00 | 46 | 1021.9 | |
| 20260502024053 | 7 | 0.0 | 0.0 | 0.00 | 0.00 | 0.00 | 42 | 1021.9 | |
| 20260502023551 | 7 | 0.0 | 0.0 | 0.00 | 0.00 | 0.00 | 41 | 1021.9 | |
| 20260502023112 | 7 | 0.0 | 0.0 | 0.00 | 0.00 | 0.00 | 39 | 1021.8 | |
| 20260502022554 | 8 | 0.0 | 0.0 | 0.00 | 0.00 | 0.00 | 42 | 1021.7 | |
| 20260502022050 | 8 | 0.0 | 0.0 | 0.00 | 0.00 | 0.00 | 39 | 1021.6 | |
| 20260502021553 | 8 | 0.0 | 0.0 | 0.00 | 0.00 | 0.00 | 36 | 1021.6 | |
| 20260502021053 | 8 | 0.0 | 0.0 | 0.00 | 0.00 | 0.00 | 36 | 1021.6 | |
| 20260502020554 | 9 | 0.0 | 0.0 | 0.00 | 0.00 | 0.00 | 36 | 1021.6 | |
| 20260502020059 | 9 | 0.0 | 0.0 | 0.00 | 0.00 | 0.00 | 37 | 1021.6 | |
| 20260502015550 | 10 | 0.0 | 0.0 | 0.00 | 0.00 | 0.00 | 35 | 1021.6 | |
| 20260502015051 | 10 | 0.0 | 0.0 | 0.00 | 0.00 | 0.00 | 34 | 1021.5 | |
| 20260502014554 | 10 | 0.0 | 0.0 | 0.00 | 0.00 | 0.00 | 34 | 1021.4 | |
| 20260502014050 | 11 | 0.0 | 0.0 | 0.00 | 0.00 | 0.00 | 34 | 1021.4 | |
| 20260502013553 | 11 | 0.0 | 0.0 | 0.00 | 0.00 | 0.00 | 36 | 1021.4 | |
| 20260502013057 | 11 | 0.0 | 0.0 | 0.00 | 0.00 | 0.00 | 34 | 1021.4 | |
| 20260502012557 | 12 | 0.0 | 0.0 | 0.00 | 0.00 | 0.00 | 32 | 1021.4 | |
| 20260502012054 | 12 | 0.0 | 0.0 | 0.00 | 0.00 | 0.00 | 31 | 1021.4 | |
| 20260502011553 | 12 | 0.0 | 0.0 | 0.00 | 0.00 | 0.00 | 28 | 1021.3 | |
| 20260502011053 | 12 | 0.0 | 0.0 | 0.00 | 0.00 | 0.00 | 28 | 1021.3 | |
| 20260502010553 | 12 | 0.0 | 0.0 | 0.00 | 0.00 | 0.00 | 28 | 1021.3 | |
| 20260502010056 | 12 | 0.0 | 0.0 | 0.00 | 0.00 | 0.00 | 27 | 1021.3 | |
| 20260502005550 | 12 | 0.0 | 0.0 | 0.00 | 0.00 | 0.00 | 27 | 1021.4 | |
| 20260502005053 | 12 | 0.0 | 0.0 | 0.00 | 0.00 | 0.00 | 26 | 1021.3 | |
| 20260502004552 | 12 | 0.0 | 0.0 | 0.00 | 0.00 | 0.00 | 24 | 1021.4 | |
| 20260502004052 | 13 | 0.0 | 0.0 | 0.00 | 0.00 | 0.00 | 22 | 1021.3 | |
| 20260502003550 | 13 | 0.0 | 0.0 | 0.00 | 0.00 | 0.00 | 26 | 1021.4 | |
| 20260502003055 | 13 | 0.0 | 0.0 | 0.00 | 0.00 | 0.00 | 26 | 1021.4 | |
| 20260502002558 | 13 | 0.0 | 0.0 | 0.00 | 0.00 | 0.00 | 25 | 1021.3 | |
| 20260502002053 | 13 | 0.0 | 0.0 | 0.00 | 0.00 | 0.00 | 20 | 1021.4 | |
| 20260502001624 | 13 | 0.0 | 0.0 | 0.00 | 0.00 | 0.00 | 20 | 1021.4 | |
| 20260502001050 | 13 | 0.0 | 0.0 | 0.00 | 0.00 | 0.00 | 24 | 1021.4 | |
| 20260502000553 | 13 | 0.0 | 0.0 | 0.00 | 0.00 | 0.00 | 21 | 1021.4 | |
| 20260502000118 | 13 | 0.0 | 0.0 | 0.00 | 0.00 | 0.00 | 21 | 1021.5 | |
| 20260501235557 | 13 | 0.0 | 0.0 | 0.00 | 0.00 | 0.00 | 22 | 1021.4 | |
| 20260501235053 | 13 | 0.0 | 0.0 | 0.00 | 0.00 | 0.00 | 21 | 1021.4 | |
| 20260501234554 | 13 | 0.0 | 0.0 | 0.00 | 0.00 | 0.00 | 19 | 1021.5 | |
| 20260501234051 | 14 | 0.0 | 0.0 | 0.00 | 0.00 | 0.00 | 24 | 1021.4 | |
| 20260501233553 | 14 | 0.0 | 0.0 | 0.00 | 0.00 | 0.00 | 22 | 1021.4 | |
| 20260501233054 | 14 | 0.0 | 0.0 | 0.00 | 0.00 | 0.00 | 20 | 1021.3 | |
| 20260501232552 | 14 | 0.0 | 0.0 | 0.00 | 0.00 | 0.00 | 21 | 1021.4 | |
| 20260501232053 | 14 | 0.0 | 0.0 | 0.00 | 0.00 | 0.00 | 22 | 1021.4 | |
| 20260501231554 | 14 | 0.0 | 0.0 | 0.00 | 0.00 | 0.00 | 23 | 1021.3 | |
| 20260501231053 | 14 | 0.0 | 0.0 | 0.00 | 0.00 | 0.00 | 20 | 1021.3 | |
| 20260501230553 | 14 | 0.0 | 0.0 | 0.00 | 0.00 | 0.00 | 23 | 1021.4 | |
| 20260501230057 | 14 | 0.0 | 0.0 | 0.00 | 0.00 | 0.00 | 22 | 1021.4 | |
| 20260501225556 | 14 | 0.0 | 0.0 | 0.00 | 0.00 | 0.00 | 21 | 1021.5 | |
| 20260501225052 | 14 | 0.0 | 0.0 | 0.00 | 0.00 | 0.00 | 21 | 1021.6 | |
| 20260501224613 | 14 | 0.0 | 0.0 | 0.00 | 0.00 | 0.00 | 21 | 1021.6 | |
| 20260501224053 | 13 | 0.0 | 0.0 | 0.00 | 0.00 | 0.00 | 20 | 1021.5 | |
| 20260501223553 | 13 | 0.0 | 0.0 | 0.00 | 0.00 | 0.00 | 21 | 1021.6 | |
| 20260501223058 | 13 | 0.0 | 0.0 | 0.00 | 0.00 | 0.00 | 18 | 1021.7 | |
| 20260501222557 | 15 | 0.0 | 0.0 | 0.00 | 0.00 | 0.00 | 20 | 1021.7 | |
| 20260501222053 | 15 | 0.0 | 0.0 | 0.00 | 0.00 | 0.00 | 19 | 1021.7 | |
| 20260501221555 | 15 | 0.0 | 0.0 | 0.00 | 0.00 | 0.00 | 21 | 1021.8 | |
| 20260501221053 | 15 | 0.0 | 0.0 | 0.00 | 0.00 | 0.00 | 17 | 1021.8 | |
| 20260501220550 | 15 | 0.0 | 0.0 | 0.00 | 0.00 | 0.00 | 17 | 1021.9 | |
| 20260501220059 | 15 | 0.0 | 0.0 | 0.00 | 0.00 | 0.00 | 18 | 1021.9 | |
| 20260501215554 | 15 | 0.0 | 0.0 | 0.00 | 0.00 | 0.00 | 21 | 1022.1 | |
| 20260501215054 | 15 | 0.0 | 0.0 | 0.00 | 0.00 | 0.00 | 21 | 1022.1 | |
| 20260501214558 | 15 | 0.0 | 0.0 | 0.00 | 0.00 | 0.00 | 20 | 1022.1 | |
| 20260501214054 | 16 | 0.0 | 0.0 | 0.00 | 0.00 | 0.00 | 21 | 1022.1 | |
| 20260501213553 | 16 | 0.0 | 0.0 | 0.00 | 0.00 | 0.00 | 24 | 1022.2 | |
| 20260501213058 | 16 | 0.0 | 0.0 | 0.00 | 0.00 | 0.00 | 21 | 1022.3 | |
| 20260501212553 | 16 | 0.0 | 0.0 | 0.00 | 0.00 | 0.00 | 23 | 1022.2 | |
| 20260501212053 | 16 | 0.0 | 0.0 | 0.00 | 0.00 | 0.00 | 21 | 1022.1 | |
| 20260501211557 | 16 | 0.0 | 0.0 | 0.00 | 0.00 | 0.00 | 22 | 1022.3 |